Time;durP1;ratioP1;P1;durP2;ratioP2;P2;SDS_P1;SDS_P2;PMS_P1;PMS_P2;Temp;Humidity;BMP_temperature;BMP_pressure;BME280_temperature;BME280_humidity;BME280_pressure;Samples;Min_cycle;Max_cycle;Signal;HPM_P1;HPM_P2
2023/07/02 00:01:07;;;;;;;8.82;5.80;;;;;;;;;;5050872;28;20043;-62
2023/07/02 00:03:32;;;;;;;9.18;5.53;;;;;;;;;;5051136;28;20461;-62
2023/07/02 00:05:58;;;;;;;11.55;5.97;;;;;;;;;;5050548;28;20029;-61
2023/07/02 00:08:23;;;;;;;9.38;5.93;;;;;;;;;;5051626;28;20079;-61
2023/07/02 00:10:48;;;;;;;7.70;5.25;;;;;;;;;;5054767;28;20060;-62
2023/07/02 00:13:14;;;;;;;7.40;5.10;;;;;;;;;;5036917;28;20063;-61
2023/07/02 00:15:41;;;;;;;8.68;5.03;;;;;;;;;;5051140;28;20035;-62
2023/07/02 00:18:06;;;;;;;8.43;4.93;;;;;;;;;;5050855;28;20057;-61
2023/07/02 00:20:37;;;;;;;8.90;5.05;;;;;;;;;;5071248;28;20055;-61
2023/07/02 00:23:08;;;;;;;8.68;5.05;;;;;;;;;;5070837;28;20111;-62
2023/07/02 00:25:34;;;;;;;6.60;4.88;;;;;;;;;;5059688;28;20542;-61
2023/07/02 00:28:00;;;;;;;8.13;5.00;;;;;;;;;;5031358;28;20065;-61
2023/07/02 00:30:25;;;;;;;8.50;4.85;;;;;;;;;;5032497;28;20057;-62
2023/07/02 00:32:50;;;;;;;9.07;5.00;;;;;;;;;;5030455;28;20429;-61
2023/07/02 00:35:16;;;;;;;9.98;5.00;;;;;;;;;;5029375;28;20115;-61
2023/07/02 00:37:41;;;;;;;12.63;5.65;;;;;;;;;;5052510;28;20024;-62
2023/07/02 00:40:07;;;;;;;8.63;5.40;;;;;;;;;;5070477;28;20464;-61
2023/07/02 00:42:32;;;;;;;10.23;5.32;;;;;;;;;;5075023;28;20056;-61
2023/07/02 00:45:02;;;;;;;10.57;5.50;;;;;;;;;;5073906;28;20384;-62
2023/07/02 00:47:28;;;;;;;9.30;5.80;;;;;;;;;;5075063;28;20025;-61
2023/07/02 00:49:54;;;;;;;11.15;5.75;;;;;;;;;;5069931;28;20032;-61
2023/07/02 00:52:20;;;;;;;9.65;5.60;;;;;;;;;;5054745;28;20491;-62
2023/07/02 00:54:46;;;;;;;10.50;5.95;;;;;;;;;;5049697;28;20110;-62
2023/07/02 00:57:12;;;;;;;10.15;5.60;;;;;;;;;;5074270;28;20395;-62
2023/07/02 00:59:38;;;;;;;8.98;5.40;;;;;;;;;;5056745;28;20033;-61
2023/07/02 01:02:05;;;;;;;9.68;5.90;;;;;;;;;;5052651;28;20125;-60
2023/07/02 01:04:31;;;;;;;10.55;5.85;;;;;;;;;;5064226;28;20041;-61
2023/07/02 01:06:57;;;;;;;11.35;5.43;;;;;;;;;;5053778;28;20116;-61
2023/07/02 01:09:25;;;;;;;12.23;5.28;;;;;;;;;;5054686;28;20120;-60
2023/07/02 01:11:55;;;;;;;12.30;5.43;;;;;;;;;;5045025;28;20112;-61
2023/07/02 01:14:37;;;;;;;11.07;5.07;;;;;;;;;;5034271;28;20029;-60
2023/07/02 01:17:04;;;;;;;11.77;5.45;;;;;;;;;;5071594;28;20040;-60
2023/07/02 01:19:33;;;;;;;12.68;5.28;;;;;;;;;;5073598;28;20469;-61
2023/07/02 01:22:00;;;;;;;8.68;4.55;;;;;;;;;;5069743;28;20389;-61
2023/07/02 01:24:26;;;;;;;11.13;5.32;;;;;;;;;;5055913;28;20031;-60
2023/07/02 01:26:51;;;;;;;10.50;5.18;;;;;;;;;;5033396;28;20108;-61
2023/07/02 01:29:18;;;;;;;7.90;4.63;;;;;;;;;;5042503;28;20434;-60
2023/07/02 01:31:45;;;;;;;10.73;5.00;;;;;;;;;;5054073;28;20025;-60
2023/07/02 01:34:11;;;;;;;8.82;4.70;;;;;;;;;;5053547;28;20108;-62
2023/07/02 01:36:37;;;;;;;8.50;4.65;;;;;;;;;;5036633;28;20041;-61
2023/07/02 01:39:03;;;;;;;9.68;4.65;;;;;;;;;;5033058;28;20029;-61
2023/07/02 01:41:28;;;;;;;11.23;4.70;;;;;;;;;;5064602;28;20052;-61
2023/07/02 01:43:54;;;;;;;7.53;4.22;;;;;;;;;;5073025;28;20475;-61
2023/07/02 01:46:20;;;;;;;9.85;4.53;;;;;;;;;;5073851;28;20048;-61
2023/07/02 01:48:45;;;;;;;9.75;5.22;;;;;;;;;;5073573;28;20059;-61
2023/07/02 01:51:11;;;;;;;9.98;4.88;;;;;;;;;;5059480;28;20626;-61
2023/07/02 01:53:36;;;;;;;10.75;4.93;;;;;;;;;;5069169;28;20028;-62
2023/07/02 01:56:01;;;;;;;10.00;4.95;;;;;;;;;;5043195;28;20040;-61
2023/07/02 01:58:27;;;;;;;8.63;4.85;;;;;;;;;;5053811;28;20103;-61
2023/07/02 02:00:52;;;;;;;8.60;4.47;;;;;;;;;;5053048;28;20120;-61
2023/07/02 02:03:18;;;;;;;10.90;4.72;;;;;;;;;;5052999;28;20035;-60
2023/07/02 02:05:43;;;;;;;10.05;5.38;;;;;;;;;;5051547;28;20420;-61
2023/07/02 02:08:08;;;;;;;10.10;4.97;;;;;;;;;;5052673;28;20112;-61
2023/07/02 02:10:34;;;;;;;16.17;5.05;;;;;;;;;;5053472;28;20033;-60
2023/07/02 02:12:59;;;;;;;10.20;4.90;;;;;;;;;;5034154;28;20120;-60
2023/07/02 02:15:25;;;;;;;10.57;5.28;;;;;;;;;;5039782;28;20035;-62
2023/07/02 02:17:50;;;;;;;10.68;5.30;;;;;;;;;;5075232;28;20136;-61
2023/07/02 02:20:16;;;;;;;10.02;5.35;;;;;;;;;;5072207;28;20037;-60
2023/07/02 02:22:41;;;;;;;10.93;4.88;;;;;;;;;;5073206;28;20029;-61
2023/07/02 02:25:07;;;;;;;13.40;5.65;;;;;;;;;;5044063;28;20482;-60
2023/07/02 02:27:33;;;;;;;9.90;5.40;;;;;;;;;;5033128;28;20120;-60
2023/07/02 02:29:58;;;;;;;11.15;4.60;;;;;;;;;;5041773;28;20382;-63
2023/07/02 02:32:24;;;;;;;12.75;5.65;;;;;;;;;;5054845;28;20120;-62
2023/07/02 02:34:49;;;;;;;8.65;4.93;;;;;;;;;;5072720;28;20456;-62
2023/07/02 02:37:15;;;;;;;15.05;5.65;;;;;;;;;;5071817;28;20040;-61
2023/07/02 02:39:40;;;;;;;11.85;5.45;;;;;;;;;;5072873;28;20040;-61
2023/07/02 02:42:05;;;;;;;14.60;5.57;;;;;;;;;;5071924;28;20072;-60
2023/07/02 02:44:32;;;;;;;12.40;4.65;;;;;;;;;;5062366;28;20028;-61
2023/07/02 02:46:57;;;;;;;10.05;5.30;;;;;;;;;;5051858;28;20039;-61
2023/07/02 02:49:23;;;;;;;11.88;5.50;;;;;;;;;;5052408;28;20029;-61
2023/07/02 02:51:48;;;;;;;11.05;5.63;;;;;;;;;;5036451;28;20061;-61
2023/07/02 02:54:14;;;;;;;15.77;5.53;;;;;;;;;;5047618;28;20111;-61
2023/07/02 02:56:39;;;;;;;12.88;5.53;;;;;;;;;;5072229;28;20104;-61
2023/07/02 02:59:04;;;;;;;15.27;5.97;;;;;;;;;;5055531;28;20025;-62
2023/07/02 03:01:30;;;;;;;15.60;6.50;;;;;;;;;;5031407;28;20025;-62
2023/07/02 03:03:58;;;;;;;12.32;6.28;;;;;;;;;;5036759;28;20545;-63
2023/07/02 03:06:23;;;;;;;16.90;6.75;;;;;;;;;;5055077;28;20119;-61
2023/07/02 03:08:49;;;;;;;14.65;7.18;;;;;;;;;;5070886;28;20119;-60
2023/07/02 03:11:14;;;;;;;15.55;6.95;;;;;;;;;;5071343;28;20032;-61
2023/07/02 03:13:39;;;;;;;16.25;7.32;;;;;;;;;;5054696;28;20435;-61
2023/07/02 03:16:05;;;;;;;14.63;7.47;;;;;;;;;;5064661;28;20031;-61
2023/07/02 03:18:31;;;;;;;13.35;7.05;;;;;;;;;;5070587;28;20032;-61
2023/07/02 03:20:56;;;;;;;17.55;6.85;;;;;;;;;;5050193;28;20473;-62
2023/07/02 03:23:22;;;;;;;16.98;7.63;;;;;;;;;;5052833;28;20446;-61
2023/07/02 03:25:47;;;;;;;15.95;7.57;;;;;;;;;;5050656;28;20025;-61
2023/07/02 03:28:13;;;;;;;15.65;7.28;;;;;;;;;;5051239;28;20037;-60
2023/07/02 03:30:38;;;;;;;17.08;7.03;;;;;;;;;;5052107;28;20463;-62
2023/07/02 03:33:03;;;;;;;14.88;6.97;;;;;;;;;;5049916;28;20029;-61
2023/07/02 03:35:29;;;;;;;14.13;7.25;;;;;;;;;;5033485;28;20061;-63
2023/07/02 03:37:54;;;;;;;16.40;7.43;;;;;;;;;;5030916;28;20107;-63
2023/07/02 03:40:19;;;;;;;16.42;7.55;;;;;;;;;;5044736;28;20025;-61
2023/07/02 03:42:45;;;;;;;17.65;7.57;;;;;;;;;;5071543;28;20485;-61
2023/07/02 03:45:10;;;;;;;16.15;7.20;;;;;;;;;;5068124;28;20107;-61
2023/07/02 03:47:36;;;;;;;17.73;6.28;;;;;;;;;;5071939;28;20085;-61
2023/07/02 03:50:01;;;;;;;13.27;6.80;;;;;;;;;;5071028;28;20058;-62
2023/07/02 03:52:27;;;;;;;15.85;7.25;;;;;;;;;;5033575;28;20440;-61
2023/07/02 03:54:52;;;;;;;16.98;7.07;;;;;;;;;;5034997;28;20037;-61
2023/07/02 03:57:18;;;;;;;15.40;7.60;;;;;;;;;;5050798;28;20255;-61
2023/07/02 03:59:43;;;;;;;17.95;7.22;;;;;;;;;;5051409;28;20033;-61
2023/07/02 04:02:08;;;;;;;16.00;7.22;;;;;;;;;;5050571;28;20418;-61
2023/07/02 04:04:34;;;;;;;17.35;6.70;;;;;;;;;;5053343;28;20156;-61
2023/07/02 04:06:59;;;;;;;15.95;7.00;;;;;;;;;;5043540;28;20043;-61
2023/07/02 04:09:25;;;;;;;17.88;7.70;;;;;;;;;;5051781;28;20120;-61
2023/07/02 04:11:50;;;;;;;15.98;7.13;;;;;;;;;;5051435;28;20033;-61
2023/07/02 04:14:15;;;;;;;15.75;6.60;;;;;;;;;;5050216;28;20076;-61
2023/07/02 04:16:44;;;;;;;13.25;6.55;;;;;;;;;;5075663;28;20060;-61
2023/07/02 04:19:10;;;;;;;16.33;6.55;;;;;;;;;;5074983;28;20042;-61
2023/07/02 04:21:35;;;;;;;14.32;6.63;;;;;;;;;;5075601;28;20435;-61
2023/07/02 04:24:01;;;;;;;14.90;6.70;;;;;;;;;;5075139;28;20528;-61
2023/07/02 04:26:26;;;;;;;14.77;6.60;;;;;;;;;;5075243;28;20028;-61
2023/07/02 04:28:55;;;;;;;18.13;6.68;;;;;;;;;;5071534;28;20047;-61
2023/07/02 04:31:21;;;;;;;11.73;6.40;;;;;;;;;;5037276;28;20107;-61
2023/07/02 04:33:47;;;;;;;16.67;6.28;;;;;;;;;;5055432;28;20063;-61
2023/07/02 04:36:12;;;;;;;15.23;6.07;;;;;;;;;;5046789;28;20033;-60
2023/07/02 04:38:39;;;;;;;17.25;6.10;;;;;;;;;;5035705;28;20041;-60
2023/07/02 04:41:05;;;;;;;13.55;6.13;;;;;;;;;;5041326;28;20094;-60
2023/07/02 04:43:31;;;;;;;14.45;5.50;;;;;;;;;;5052334;28;20071;-62
2023/07/02 04:45:57;;;;;;;16.30;5.93;;;;;;;;;;5054800;28;20036;-62
2023/07/02 04:48:22;;;;;;;14.05;5.50;;;;;;;;;;5052963;28;20017;-61
2023/07/02 04:50:48;;;;;;;13.18;6.28;;;;;;;;;;5055351;28;20047;-61
2023/07/02 04:53:13;;;;;;;14.20;5.97;;;;;;;;;;5052992;28;20033;-62
2023/07/02 04:55:38;;;;;;;15.13;6.18;;;;;;;;;;5054889;28;20021;-61
2023/07/02 04:58:04;;;;;;;18.77;6.72;;;;;;;;;;5045230;28;20052;-63
2023/07/02 05:00:29;;;;;;;14.18;6.38;;;;;;;;;;5033422;28;20085;-61
2023/07/02 05:02:55;;;;;;;18.17;7.38;;;;;;;;;;5051946;28;20059;-61
2023/07/02 05:05:20;;;;;;;18.77;7.25;;;;;;;;;;5064488;28;20521;-61
2023/07/02 05:07:45;;;;;;;18.67;7.35;;;;;;;;;;5034794;28;20030;-61
2023/07/02 05:10:11;;;;;;;17.90;7.68;;;;;;;;;;5049368;28;20033;-61
2023/07/02 05:12:36;;;;;;;19.38;8.73;;;;;;;;;;5033584;28;20482;-61
2023/07/02 05:15:02;;;;;;;18.98;9.38;;;;;;;;;;5052026;28;20448;-61
2023/07/02 05:17:28;;;;;;;19.48;9.68;;;;;;;;;;5066056;28;20037;-61
2023/07/02 05:19:53;;;;;;;24.45;10.07;;;;;;;;;;5034269;28;20496;-60
2023/07/02 05:22:19;;;;;;;23.92;10.02;;;;;;;;;;5059171;28;20408;-60
2023/07/02 05:24:46;;;;;;;21.17;10.20;;;;;;;;;;5074529;28;20070;-62
2023/07/02 05:27:11;;;;;;;23.55;10.38;;;;;;;;;;5066008;28;20423;-62
2023/07/02 05:29:37;;;;;;;25.83;11.25;;;;;;;;;;5046584;28;20120;-63
2023/07/02 05:32:02;;;;;;;29.25;11.05;;;;;;;;;;5074662;28;20377;-62
2023/07/02 05:34:27;;;;;;;22.40;10.50;;;;;;;;;;5073461;28;20039;-62
2023/07/02 05:36:53;;;;;;;22.23;10.32;;;;;;;;;;5073990;28;20307;-61
2023/07/02 05:39:18;;;;;;;26.63;11.80;;;;;;;;;;5073416;28;20024;-61
2023/07/02 05:41:44;;;;;;;23.60;11.85;;;;;;;;;;5059769;28;20048;-61
2023/07/02 05:44:09;;;;;;;24.10;11.02;;;;;;;;;;5053267;28;20033;-61
2023/07/02 05:46:34;;;;;;;25.52;11.80;;;;;;;;;;5060561;28;20032;-61
2023/07/02 05:49:00;;;;;;;23.55;11.27;;;;;;;;;;5043619;28;20113;-61
2023/07/02 05:51:25;;;;;;;23.67;10.82;;;;;;;;;;5049057;28;20112;-61
2023/07/02 05:53:52;;;;;;;25.40;11.23;;;;;;;;;;5036306;28;20037;-60
2023/07/02 05:56:18;;;;;;;24.92;10.27;;;;;;;;;;5033570;28;20037;-66
2023/07/02 05:58:45;;;;;;;26.05;11.10;;;;;;;;;;5033923;28;20112;-61
2023/07/02 06:01:10;;;;;;;22.40;10.50;;;;;;;;;;5039474;28;20055;-61
2023/07/02 06:03:36;;;;;;;21.95;9.00;;;;;;;;;;5069389;28;20060;-60
2023/07/02 06:06:01;;;;;;;22.13;9.93;;;;;;;;;;5070346;28;20484;-62
2023/07/02 06:08:26;;;;;;;22.65;9.38;;;;;;;;;;5053163;28;20028;-62
2023/07/02 06:10:52;;;;;;;21.30;9.32;;;;;;;;;;5054123;28;20044;-62
2023/07/02 06:13:17;;;;;;;21.77;10.25;;;;;;;;;;5072546;28;20036;-62
2023/07/02 06:15:43;;;;;;;20.48;8.90;;;;;;;;;;5073545;28;20119;-61
2023/07/02 06:18:08;;;;;;;16.60;8.05;;;;;;;;;;5073206;28;20081;-61
2023/07/02 06:20:34;;;;;;;15.93;8.30;;;;;;;;;;5058922;28;20381;-61
2023/07/02 06:22:59;;;;;;;27.40;8.73;;;;;;;;;;5070467;28;20024;-61
2023/07/02 06:25:25;;;;;;;21.23;9.23;;;;;;;;;;5052133;28;20044;-61
2023/07/02 06:27:53;;;;;;;19.70;8.57;;;;;;;;;;5053265;28;20032;-62
2023/07/02 06:30:19;;;;;;;21.50;8.68;;;;;;;;;;5052398;28;20400;-61
2023/07/02 06:32:44;;;;;;;18.05;7.78;;;;;;;;;;5053080;28;20047;-60
2023/07/02 06:35:10;;;;;;;21.20;8.75;;;;;;;;;;5063794;28;20028;-61
2023/07/02 06:37:35;;;;;;;16.60;7.40;;;;;;;;;;5072997;28;20028;-61
2023/07/02 06:40:01;;;;;;;18.10;7.93;;;;;;;;;;5070156;28;20219;-61
2023/07/02 06:42:26;;;;;;;18.35;7.53;;;;;;;;;;5051685;28;20060;-60
2023/07/02 06:44:51;;;;;;;18.50;7.38;;;;;;;;;;5052296;28;20060;-61
2023/07/02 06:47:17;;;;;;;17.35;7.03;;;;;;;;;;5056370;28;20495;-62
2023/07/02 06:49:43;;;;;;;19.13;7.95;;;;;;;;;;5073382;28;20028;-61
2023/07/02 06:52:08;;;;;;;19.77;7.45;;;;;;;;;;5066421;28;20454;-63
2023/07/02 06:54:34;;;;;;;18.98;7.00;;;;;;;;;;5067553;28;20028;-61
2023/07/02 06:56:59;;;;;;;16.50;7.35;;;;;;;;;;5069901;28;20370;-62
2023/07/02 06:59:25;;;;;;;18.15;7.97;;;;;;;;;;5051288;28;20033;-62
2023/07/02 07:01:50;;;;;;;21.73;7.90;;;;;;;;;;5052627;28;20033;-61
2023/07/02 07:04:16;;;;;;;17.55;6.88;;;;;;;;;;5051731;28;20075;-60
2023/07/02 07:06:42;;;;;;;16.42;5.95;;;;;;;;;;5052490;28;20032;-62
2023/07/02 07:09:08;;;;;;;14.82;6.90;;;;;;;;;;5052607;28;20054;-61
2023/07/02 07:11:33;;;;;;;11.60;5.72;;;;;;;;;;5052768;28;20033;-62
2023/07/02 07:13:59;;;;;;;17.95;7.72;;;;;;;;;;5039843;28;20036;-62
2023/07/02 07:16:24;;;;;;;13.50;6.50;;;;;;;;;;5047700;28;20060;-61
2023/07/02 07:18:50;;;;;;;16.50;7.20;;;;;;;;;;5041756;28;20036;-62
2023/07/02 07:21:15;;;;;;;14.50;6.95;;;;;;;;;;5051272;28;20025;-61
2023/07/02 07:23:40;;;;;;;16.75;7.82;;;;;;;;;;5056913;28;20036;-61
2023/07/02 07:26:06;;;;;;;16.52;6.82;;;;;;;;;;5070872;28;20373;-61
2023/07/02 07:28:32;;;;;;;17.00;7.55;;;;;;;;;;5060021;28;20025;-62
2023/07/02 07:30:57;;;;;;;19.42;7.55;;;;;;;;;;5050758;28;20081;-61
2023/07/02 07:33:23;;;;;;;18.10;7.10;;;;;;;;;;5051011;28;20041;-61
2023/07/02 07:35:48;;;;;;;14.27;6.20;;;;;;;;;;5050478;28;20033;-61
2023/07/02 07:38:17;;;;;;;15.98;7.13;;;;;;;;;;5052934;28;20035;-61
2023/07/02 07:40:43;;;;;;;18.45;6.68;;;;;;;;;;5053840;28;20037;-64
2023/07/02 07:43:09;;;;;;;20.15;7.60;;;;;;;;;;5049469;28;20059;-65
2023/07/02 07:45:35;;;;;;;14.82;7.03;;;;;;;;;;5056267;28;20048;-62
2023/07/02 07:48:01;;;;;;;14.63;6.30;;;;;;;;;;5046939;28;20439;-61
2023/07/02 07:50:26;;;;;;;16.00;5.70;;;;;;;;;;5046965;28;20083;-61
2023/07/02 07:52:52;;;;;;;14.50;6.38;;;;;;;;;;5051977;28;20032;-61
2023/07/02 07:55:17;;;;;;;18.70;7.38;;;;;;;;;;5049664;28;20029;-62
2023/07/02 07:57:43;;;;;;;15.05;7.05;;;;;;;;;;5047336;28;20501;-61
2023/07/02 08:00:11;;;;;;;17.92;7.32;;;;;;;;;;5037772;28;20078;-61
2023/07/02 08:02:37;;;;;;;13.70;7.07;;;;;;;;;;5051281;28;20025;-61
2023/07/02 08:05:03;;;;;;;16.55;6.18;;;;;;;;;;5039884;28;20081;-63
2023/07/02 08:07:30;;;;;;;15.82;7.35;;;;;;;;;;5050788;28;20461;-63
2023/07/02 08:09:55;;;;;;;19.10;7.13;;;;;;;;;;5049557;28;20063;-62
2023/07/02 08:12:21;;;;;;;14.45;6.55;;;;;;;;;;5065622;28;20449;-62
2023/07/02 08:14:47;;;;;;;16.35;6.47;;;;;;;;;;5067866;28;20063;-61
2023/07/02 08:17:12;;;;;;;17.35;6.47;;;;;;;;;;5051237;28;20029;-62
2023/07/02 08:19:37;;;;;;;17.38;6.40;;;;;;;;;;5051751;28;20067;-62
2023/07/02 08:22:03;;;;;;;15.30;5.97;;;;;;;;;;5064463;28;20397;-62
2023/07/02 08:24:30;;;;;;;13.55;6.10;;;;;;;;;;5049263;28;20071;-62
2023/07/02 08:26:56;;;;;;;15.55;7.13;;;;;;;;;;5051621;28;20033;-62
2023/07/02 08:29:21;;;;;;;19.00;7.03;;;;;;;;;;5058090;28;20033;-61
2023/07/02 08:31:46;;;;;;;15.45;6.47;;;;;;;;;;5065236;28;20125;-61
2023/07/02 08:34:12;;;;;;;17.55;6.38;;;;;;;;;;5055739;28;20032;-61
2023/07/02 08:36:38;;;;;;;15.85;6.93;;;;;;;;;;5047775;28;20036;-61
2023/07/02 08:39:04;;;;;;;18.17;6.72;;;;;;;;;;5049067;28;20048;-60
2023/07/02 08:41:30;;;;;;;16.00;6.40;;;;;;;;;;5049201;28;20503;-61
2023/07/02 08:43:56;;;;;;;15.32;7.35;;;;;;;;;;5069202;28;20033;-61
2023/07/02 08:46:22;;;;;;;16.70;6.63;;;;;;;;;;5070526;28;20416;-61
2023/07/02 08:48:47;;;;;;;16.48;6.78;;;;;;;;;;5071042;28;20082;-60
2023/07/02 08:51:13;;;;;;;17.15;6.30;;;;;;;;;;5071127;28;20388;-61
2023/07/02 08:53:38;;;;;;;14.50;5.82;;;;;;;;;;5070437;28;20032;-60
2023/07/02 08:56:04;;;;;;;19.80;6.65;;;;;;;;;;5061541;28;20031;-60
2023/07/02 08:58:29;;;;;;;18.77;7.05;;;;;;;;;;5050196;28;20083;-60
2023/07/02 09:01:14;;;;;;;13.30;5.68;;;;;;;;;;5048892;28;20040;-60
2023/07/02 09:03:41;;;;;;;15.82;6.28;;;;;;;;;;5034339;28;20033;-60
2023/07/02 09:06:08;;;;;;;15.32;6.25;;;;;;;;;;5033182;28;20100;-61
2023/07/02 09:08:34;;;;;;;13.32;5.45;;;;;;;;;;5040957;28;20036;-62
2023/07/02 09:11:08;;;;;;;16.67;6.03;;;;;;;;;;5054285;28;20033;-61
2023/07/02 09:13:50;;;;;;;11.93;5.28;;;;;;;;;;5053788;28;20044;-61
2023/07/02 09:16:27;;;;;;;12.75;4.97;;;;;;;;;;5054410;28;20036;-61
2023/07/02 09:19:04;;;;;;;15.20;4.72;;;;;;;;;;5054821;28;20436;-60
2023/07/02 09:21:46;;;;;;;12.15;5.38;;;;;;;;;;5053236;28;20056;-62
2023/07/02 09:24:15;;;;;;;13.90;5.43;;;;;;;;;;5052864;28;20037;-61
2023/07/02 09:26:53;;;;;;;11.55;4.95;;;;;;;;;;5052505;28;20021;-62
2023/07/02 09:29:21;;;;;;;14.27;5.30;;;;;;;;;;5053291;28;20035;-61
2023/07/02 09:31:47;;;;;;;11.73;4.90;;;;;;;;;;5053654;28;20533;-60
2023/07/02 09:34:14;;;;;;;9.85;4.60;;;;;;;;;;5054432;28;20108;-60
2023/07/02 09:36:40;;;;;;;14.90;5.80;;;;;;;;;;5056523;28;20040;-60
2023/07/02 09:39:14;;;;;;;12.35;5.32;;;;;;;;;;5038929;28;20527;-60
2023/07/02 09:41:44;;;;;;;11.38;5.40;;;;;;;;;;5053050;28;20060;-60
2023/07/02 09:44:10;;;;;;;14.13;5.53;;;;;;;;;;5052897;28;20021;-60
2023/07/02 09:46:43;;;;;;;13.32;5.63;;;;;;;;;;5053466;28;20037;-61
2023/07/02 09:49:13;;;;;;;11.80;5.43;;;;;;;;;;5054209;28;20037;-60
2023/07/02 09:51:40;;;;;;;11.23;4.82;;;;;;;;;;5053001;28;20118;-60
2023/07/02 09:54:05;;;;;;;9.73;4.28;;;;;;;;;;5051538;28;20045;-60
2023/07/02 09:56:31;;;;;;;13.02;5.45;;;;;;;;;;5053645;28;20037;-60
2023/07/02 09:58:57;;;;;;;13.40;5.25;;;;;;;;;;5053929;28;20025;-60
2023/07/02 10:01:22;;;;;;;11.70;5.18;;;;;;;;;;5052885;28;20112;-61
2023/07/02 10:03:47;;;;;;;11.68;5.38;;;;;;;;;;5053673;28;20100;-60
2023/07/02 10:06:13;;;;;;;11.27;5.15;;;;;;;;;;5053791;28;20029;-60
2023/07/02 10:08:38;;;;;;;12.00;5.32;;;;;;;;;;5051873;28;20037;-60
2023/07/02 10:11:08;;;;;;;12.00;5.30;;;;;;;;;;5053585;28;20029;-60
2023/07/02 10:13:34;;;;;;;14.80;6.18;;;;;;;;;;5052394;28;20032;-60
2023/07/02 10:16:03;;;;;;;12.80;5.05;;;;;;;;;;5053168;28;20091;-60
2023/07/02 10:18:28;;;;;;;9.90;4.57;;;;;;;;;;5052579;28;20554;-60
2023/07/02 10:20:54;;;;;;;11.65;4.90;;;;;;;;;;5053381;28;20124;-60
2023/07/02 10:23:20;;;;;;;12.40;5.55;;;;;;;;;;5052162;28;20033;-61
2023/07/02 10:25:45;;;;;;;14.80;5.50;;;;;;;;;;5052794;28;20075;-60
2023/07/02 10:28:26;;;;;;;11.82;5.05;;;;;;;;;;5053630;28;20040;-61
2023/07/02 10:30:53;;;;;;;8.65;4.47;;;;;;;;;;5053140;28;20029;-60
2023/07/02 10:33:20;;;;;;;13.63;4.63;;;;;;;;;;5051805;28;20028;-60
2023/07/02 10:35:49;;;;;;;10.38;4.72;;;;;;;;;;5051698;28;20468;-60
2023/07/02 10:38:19;;;;;;;9.93;4.20;;;;;;;;;;5051859;28;20049;-60
2023/07/02 10:40:44;;;;;;;9.57;5.03;;;;;;;;;;5052237;28;20036;-60
2023/07/02 10:43:10;;;;;;;11.30;5.40;;;;;;;;;;5053140;28;20397;-60
2023/07/02 10:45:36;;;;;;;11.23;5.18;;;;;;;;;;5051015;28;20043;-60
2023/07/02 10:48:03;;;;;;;13.20;5.40;;;;;;;;;;5053051;28;20051;-60
2023/07/02 10:50:30;;;;;;;11.50;5.32;;;;;;;;;;5051771;28;20120;-60
2023/07/02 10:52:56;;;;;;;10.32;5.03;;;;;;;;;;5050999;28;20051;-60
2023/07/02 10:55:24;;;;;;;12.18;5.22;;;;;;;;;;5052400;28;20454;-61
2023/07/02 10:58:01;;;;;;;13.38;5.75;;;;;;;;;;5051388;28;20029;-60
2023/07/02 11:00:27;;;;;;;11.43;5.50;;;;;;;;;;5051495;28;20112;-60
2023/07/02 11:02:52;;;;;;;10.20;4.85;;;;;;;;;;5052392;28;20112;-60
2023/07/02 11:05:18;;;;;;;8.23;4.15;;;;;;;;;;5052557;28;20040;-60
2023/07/02 11:07:43;;;;;;;10.93;5.25;;;;;;;;;;5050545;28;20553;-60
2023/07/02 11:10:11;;;;;;;12.68;4.85;;;;;;;;;;5052214;28;20533;-59
2023/07/02 11:12:37;;;;;;;10.40;5.07;;;;;;;;;;5051356;28;20059;-60
2023/07/02 11:15:17;;;;;;;13.05;4.68;;;;;;;;;;5051618;28;20033;-61
2023/07/02 11:17:43;;;;;;;11.98;4.60;;;;;;;;;;5051536;28;20039;-60
2023/07/02 11:20:10;;;;;;;14.75;4.63;;;;;;;;;;5052263;28;20116;-60
2023/07/02 11:22:37;;;;;;;12.90;5.03;;;;;;;;;;5051130;28;20075;-59
2023/07/02 11:25:14;;;;;;;10.82;4.53;;;;;;;;;;5051591;28;20024;-60
2023/07/02 11:27:40;;;;;;;10.02;4.75;;;;;;;;;;5053563;28;20027;-61
2023/07/02 11:30:06;;;;;;;8.68;4.60;;;;;;;;;;5050429;28;20497;-59
2023/07/02 11:32:48;;;;;;;12.75;5.40;;;;;;;;;;5051640;28;20112;-60
2023/07/02 11:35:14;;;;;;;11.07;5.35;;;;;;;;;;5052160;28;20029;-60
2023/07/02 11:37:39;;;;;;;11.85;4.93;;;;;;;;;;5051316;28;20051;-60
2023/07/02 11:40:05;;;;;;;11.73;5.35;;;;;;;;;;5052056;28;20029;-60
2023/07/02 11:42:30;;;;;;;11.95;4.93;;;;;;;;;;5051097;28;20070;-59
2023/07/02 11:44:57;;;;;;;9.05;4.63;;;;;;;;;;5051063;28;20045;-60
2023/07/02 11:47:22;;;;;;;11.27;5.20;;;;;;;;;;5052351;28;20098;-60
2023/07/02 11:49:47;;;;;;;13.13;4.70;;;;;;;;;;5051166;28;20108;-60
2023/07/02 11:52:14;;;;;;;11.73;5.18;;;;;;;;;;5048983;28;20029;-59
2023/07/02 11:54:40;;;;;;;11.82;5.15;;;;;;;;;;5048594;28;20451;-60
2023/07/02 11:57:06;;;;;;;10.13;4.80;;;;;;;;;;5051788;28;20024;-60
2023/07/02 11:59:31;;;;;;;10.13;4.80;;;;;;;;;;5050864;28;20025;-60
2023/07/02 12:01:56;;;;;;;11.38;4.43;;;;;;;;;;5051605;28;20358;-61
2023/07/02 12:04:22;;;;;;;10.98;4.70;;;;;;;;;;5051763;28;20058;-59
2023/07/02 12:06:47;;;;;;;10.82;5.07;;;;;;;;;;5050883;28;20035;-60
2023/07/02 12:09:12;;;;;;;8.82;4.18;;;;;;;;;;5049549;28;20112;-60
2023/07/02 12:11:38;;;;;;;8.95;3.90;;;;;;;;;;5049990;28;20036;-60
2023/07/02 12:14:04;;;;;;;8.52;4.63;;;;;;;;;;5051757;28;20040;-60
2023/07/02 12:16:29;;;;;;;8.85;5.05;;;;;;;;;;5050745;28;20485;-61
2023/07/02 12:18:54;;;;;;;13.35;4.88;;;;;;;;;;5035914;28;20543;-60
2023/07/02 12:21:20;;;;;;;10.75;4.72;;;;;;;;;;5030242;28;20101;-60
2023/07/02 12:23:45;;;;;;;10.70;4.85;;;;;;;;;;5030697;28;20033;-60
2023/07/02 12:26:11;;;;;;;11.68;4.18;;;;;;;;;;5031413;28;20386;-60
2023/07/02 12:28:36;;;;;;;12.50;4.63;;;;;;;;;;5030786;28;20112;-60
2023/07/02 12:31:02;;;;;;;12.65;5.10;;;;;;;;;;5031635;28;20021;-60
2023/07/02 12:33:28;;;;;;;9.15;4.55;;;;;;;;;;5043069;28;20462;-61
2023/07/02 12:35:53;;;;;;;10.98;4.68;;;;;;;;;;5052096;28;20394;-60
2023/07/02 12:38:18;;;;;;;10.82;4.18;;;;;;;;;;5055497;28;20037;-60
2023/07/02 12:40:44;;;;;;;11.30;4.47;;;;;;;;;;5054288;28;20033;-60
2023/07/02 12:43:09;;;;;;;10.23;4.72;;;;;;;;;;5055133;28;20091;-60
2023/07/02 12:45:35;;;;;;;11.15;5.40;;;;;;;;;;5054127;28;20041;-61
2023/07/02 12:48:00;;;;;;;11.23;4.78;;;;;;;;;;5052246;28;20111;-60
2023/07/02 12:50:25;;;;;;;9.60;4.95;;;;;;;;;;5055178;28;20398;-61
2023/07/02 12:52:51;;;;;;;8.52;4.55;;;;;;;;;;5053030;28;20033;-60
2023/07/02 12:55:16;;;;;;;11.05;4.70;;;;;;;;;;5055045;28;20458;-60
2023/07/02 12:57:42;;;;;;;12.70;5.18;;;;;;;;;;5053929;28;20491;-60
2023/07/02 13:00:08;;;;;;;11.40;4.47;;;;;;;;;;5052323;28;20036;-60
2023/07/02 13:02:34;;;;;;;9.55;4.53;;;;;;;;;;5053762;28;20604;-60
2023/07/02 13:04:59;;;;;;;11.20;4.65;;;;;;;;;;5053551;28;20029;-60
2023/07/02 13:07:25;;;;;;;12.93;4.78;;;;;;;;;;5054711;28;20466;-60
2023/07/02 13:09:51;;;;;;;9.93;4.47;;;;;;;;;;5053955;28;20024;-60
2023/07/02 13:12:16;;;;;;;12.30;5.15;;;;;;;;;;5054500;28;20029;-60
2023/07/02 13:14:42;;;;;;;8.43;4.43;;;;;;;;;;5047789;28;20538;-60
2023/07/02 13:17:08;;;;;;;9.15;4.43;;;;;;;;;;5048206;28;20025;-60
2023/07/02 13:19:33;;;;;;;11.23;5.30;;;;;;;;;;5046644;28;20465;-61
2023/07/02 13:21:59;;;;;;;9.23;4.63;;;;;;;;;;5034231;28;20041;-60
2023/07/02 13:24:24;;;;;;;9.65;4.22;;;;;;;;;;5034592;28;20056;-60
2023/07/02 13:26:50;;;;;;;13.63;5.25;;;;;;;;;;5033688;28;20037;-60
2023/07/02 13:29:16;;;;;;;12.98;5.18;;;;;;;;;;5034544;28;20066;-60
2023/07/02 13:31:42;;;;;;;10.63;4.60;;;;;;;;;;5040178;28;20051;-60
2023/07/02 13:34:07;;;;;;;11.95;4.97;;;;;;;;;;5052131;28;20111;-61
2023/07/02 13:36:32;;;;;;;11.82;5.28;;;;;;;;;;5053763;28;20473;-61
2023/07/02 13:38:58;;;;;;;12.35;4.82;;;;;;;;;;5052845;28;20036;-62
2023/07/02 13:41:23;;;;;;;10.57;4.80;;;;;;;;;;5053781;28;20056;-60
2023/07/02 13:43:49;;;;;;;11.45;5.10;;;;;;;;;;5052882;28;20120;-60
2023/07/02 13:46:15;;;;;;;10.82;5.00;;;;;;;;;;5054006;28;20033;-60
2023/07/02 13:48:40;;;;;;;12.82;5.80;;;;;;;;;;5050614;28;20033;-60
2023/07/02 13:51:07;;;;;;;13.65;5.65;;;;;;;;;;5053928;28;20500;-60
2023/07/02 13:53:33;;;;;;;11.68;5.45;;;;;;;;;;5053099;28;20061;-61
2023/07/02 13:55:58;;;;;;;11.15;5.38;;;;;;;;;;5053812;28;20063;-61
2023/07/02 13:58:24;;;;;;;13.15;5.43;;;;;;;;;;5053866;28;20040;-61
2023/07/02 14:00:49;;;;;;;11.80;5.38;;;;;;;;;;5053017;28;20523;-61
2023/07/02 14:03:15;;;;;;;13.57;6.18;;;;;;;;;;5035885;28;20038;-61
2023/07/02 14:05:40;;;;;;;12.13;4.80;;;;;;;;;;5033028;28;20025;-60
2023/07/02 14:08:06;;;;;;;15.60;5.88;;;;;;;;;;5048190;28;20032;-64
2023/07/02 14:10:32;;;;;;;10.50;5.95;;;;;;;;;;5068925;28;20037;-66
2023/07/02 14:12:57;;;;;;;13.13;6.05;;;;;;;;;;5061343;28;20045;-62
2023/07/02 14:15:24;;;;;;;14.57;6.18;;;;;;;;;;5037254;28;20033;-62
2023/07/02 14:17:49;;;;;;;11.43;5.72;;;;;;;;;;5042540;28;20043;-62
2023/07/02 14:20:15;;;;;;;16.27;5.90;;;;;;;;;;5052789;28;20024;-61
2023/07/02 14:22:40;;;;;;;13.52;6.22;;;;;;;;;;5038334;28;20025;-62
2023/07/02 14:25:06;;;;;;;15.57;6.43;;;;;;;;;;5053395;28;20029;-61